createdAt,value
2016-02-16T00:00:32.996Z,6.3
2016-02-16T00:01:32.905Z,6.24
2016-02-16T00:02:32.861Z,6.31
2016-02-16T00:03:32.848Z,6.33
2016-02-16T00:04:31.992Z,6.19
2016-02-16T00:05:32.744Z,6.2
2016-02-16T00:06:32.638Z,6.3
2016-02-16T00:07:32.593Z,6.28
2016-02-16T00:08:32.533Z,6.33
2016-02-16T00:09:32.474Z,6.24
2016-02-16T00:10:32.399Z,6.22
2016-02-16T00:11:32.307Z,6.31
2016-02-16T00:12:32.263Z,6.35
2016-02-16T00:13:32.265Z,6.22
2016-02-16T00:14:32.143Z,6.33
2016-02-16T00:15:32.162Z,6.27
2016-02-16T00:16:32.087Z,6.3
2016-02-16T00:17:32.057Z,6.22
2016-02-16T00:18:32.013Z,6.27
2016-02-16T00:19:31.859Z,6.17
2016-02-16T00:20:31.816Z,6.11
2016-02-16T00:21:31.881Z,6.09
2016-02-16T00:22:31.696Z,6.01
2016-02-16T00:23:31.652Z,6.04
2016-02-16T00:24:31.670Z,5.86
2016-02-16T00:25:31.673Z,5.9
2016-02-16T00:26:31.473Z,5.98
2016-02-16T00:27:31.537Z,5.99
2016-02-16T00:28:31.447Z,6.04
2016-02-16T00:29:31.434Z,5.94
2016-02-16T00:30:31.249Z,5.93
2016-02-16T00:31:31.236Z,5.91
2016-02-16T00:32:31.129Z,5.9
2016-02-16T00:33:31.148Z,5.91
2016-02-16T00:34:31.088Z,5.87
2016-02-16T00:35:30.981Z,5.84
2016-02-16T00:36:30.983Z,5.97
2016-02-16T00:37:30.846Z,5.91
2016-02-16T00:38:30.833Z,5.98
2016-02-16T00:39:30.711Z,5.73
2016-02-16T00:40:30.791Z,5.84
2016-02-16T00:41:30.654Z,5.79
2016-02-16T00:42:30.532Z,5.75
2016-02-16T00:43:30.488Z,5.75
2016-02-16T00:44:30.568Z,5.83
2016-02-16T00:45:30.430Z,5.71
2016-02-16T00:46:30.338Z,5.75
2016-02-16T00:47:30.279Z,5.83
2016-02-16T00:48:30.282Z,5.84
2016-02-16T00:49:30.237Z,5.83
2016-02-16T00:50:30.146Z,5.97
2016-02-16T00:51:30.165Z,5.93
2016-02-16T00:52:30.073Z,5.91
2016-02-16T00:53:29.936Z,5.98
2016-02-16T00:54:29.907Z,5.9
2016-02-16T00:55:29.831Z,5.98
2016-02-16T00:56:29.741Z,5.99
2016-02-16T00:57:29.697Z,5.9
2016-02-16T00:58:29.730Z,5.9
2016-02-16T00:59:29.608Z,5.93
2016-02-16T01:00:29.611Z,5.93
2016-02-16T01:01:29.567Z,5.91
2016-02-16T01:02:29.461Z,5.89
2016-02-16T01:03:29.384Z,5.93
2016-02-16T01:04:29.325Z,5.91
2016-02-16T01:05:29.249Z,5.91
2016-02-16T01:06:29.252Z,5.99
2016-02-16T01:07:29.302Z,6.04
2016-02-16T01:08:29.102Z,5.93
2016-02-16T01:09:29.119Z,6.01
2016-02-16T01:10:28.949Z,6.05
2016-02-16T01:11:28.905Z,5.97
2016-02-16T01:12:28.908Z,5.99
2016-02-16T01:13:28.865Z,5.97
2016-02-16T01:14:28.727Z,6.01
2016-02-16T01:15:28.698Z,5.97
2016-02-16T01:16:28.638Z,6.04
2016-02-16T01:17:28.578Z,5.97
2016-02-16T01:18:28.503Z,5.97
2016-02-16T01:19:28.491Z,5.93
2016-02-16T01:20:28.415Z,5.98
2016-02-16T01:21:28.370Z,5.83
2016-02-16T01:22:28.326Z,5.86
2016-02-16T01:23:28.219Z,5.89
2016-02-16T01:24:28.176Z,5.98
2016-02-16T01:25:28.148Z,5.97
2016-02-16T01:26:28.040Z,5.94
2016-02-16T01:27:28.012Z,5.93
2016-02-16T01:28:27.920Z,5.89
2016-02-16T01:29:27.876Z,5.87
2016-02-16T01:30:27.832Z,5.87
2016-02-16T01:31:27.757Z,5.72
2016-02-16T01:32:27.806Z,5.73
2016-02-16T01:33:27.715Z,5.69
2016-02-16T01:34:27.624Z,5.69
2016-02-16T01:35:27.533Z,5.72
2016-02-16T01:36:27.504Z,5.72
2016-02-16T01:37:27.414Z,5.72
2016-02-16T01:38:27.369Z,5.73
2016-02-16T01:39:27.325Z,5.79
2016-02-16T01:40:26.483Z,5.65
2016-02-16T01:41:27.190Z,5.72
2016-02-16T01:42:27.224Z,5.73
2016-02-16T01:43:27.071Z,5.59
2016-02-16T01:44:27.011Z,5.59
2016-02-16T01:45:26.966Z,5.64
2016-02-16T01:46:26.874Z,5.71
2016-02-16T01:47:26.816Z,5.64
2016-02-16T01:48:26.771Z,5.8
2016-02-16T01:49:26.712Z,5.75
2016-02-16T01:50:26.683Z,5.61
2016-02-16T01:51:26.638Z,5.62
2016-02-16T01:52:26.532Z,5.64
2016-02-16T01:53:26.488Z,5.44
2016-02-16T01:54:26.410Z,5.48
2016-02-16T01:55:26.412Z,5.43
2016-02-16T01:56:26.368Z,5.59
2016-02-16T01:57:26.356Z,5.5
2016-02-16T01:58:26.295Z,5.46
2016-02-16T01:59:26.189Z,5.43
2016-02-16T02:00:26.113Z,5.44
2016-02-16T02:01:26.100Z,5.48
2016-02-16T02:02:25.962Z,5.43
2016-02-16T02:03:25.918Z,5.43
2016-02-16T02:04:25.859Z,5.39
2016-02-16T02:05:25.815Z,5.51
2016-02-16T02:06:25.787Z,5.39
2016-02-16T02:07:25.712Z,5.41
2016-02-16T02:08:25.761Z,5.47
2016-02-16T02:09:25.701Z,5.44
2016-02-16T02:10:25.531Z,5.51
2016-02-16T02:11:25.473Z,5.57
2016-02-16T02:12:25.412Z,5.61
2016-02-16T02:13:25.353Z,5.59
2016-02-16T02:14:25.323Z,5.57
2016-02-16T02:15:25.248Z,5.46
2016-02-16T02:16:25.220Z,5.59
2016-02-16T02:17:25.128Z,5.44
2016-02-16T02:18:25.084Z,5.48
2016-02-16T02:19:25.025Z,5.46
2016-02-16T02:20:24.996Z,5.61
2016-02-16T02:21:24.921Z,5.59
2016-02-16T02:22:24.830Z,5.5
2016-02-16T02:23:24.801Z,5.65
2016-02-16T02:24:24.789Z,5.62
2016-02-16T02:25:24.697Z,5.46
2016-02-16T02:26:24.621Z,5.57
2016-02-16T02:27:24.530Z,5.5
2016-02-16T02:28:24.533Z,5.47
2016-02-16T02:29:24.489Z,5.5
2016-02-16T02:30:24.367Z,5.46
2016-02-16T02:31:24.385Z,5.46
2016-02-16T02:32:24.262Z,5.44
2016-02-16T02:33:24.203Z,5.32
2016-02-16T02:34:24.175Z,5.36
2016-02-16T02:35:24.193Z,5.23
2016-02-16T02:36:24.102Z,5.36
2016-02-16T02:37:23.995Z,5.33
2016-02-16T02:38:23.920Z,5.41
2016-02-16T02:39:23.844Z,5.28
2016-02-16T02:40:23.879Z,5.35
2016-02-16T02:41:23.740Z,5.38
2016-02-16T02:42:23.649Z,5.51
2016-02-16T02:43:23.620Z,5.38
2016-02-16T02:44:23.608Z,5.44
2016-02-16T02:45:23.500Z,5.29
2016-02-16T02:46:23.581Z,5.35
2016-02-16T02:47:23.507Z,5.38
2016-02-16T02:48:23.415Z,5.44
2016-02-16T02:49:23.417Z,5.39
2016-02-16T02:50:23.233Z,5.38
2016-02-16T02:51:23.188Z,5.44
2016-02-16T02:52:23.130Z,5.41
2016-02-16T02:53:23.039Z,5.44
2016-02-16T02:54:22.978Z,5.44
2016-02-16T02:55:22.949Z,5.39
2016-02-16T02:56:22.890Z,5.43
2016-02-16T02:57:22.830Z,5.44
2016-02-16T02:58:22.817Z,5.59
2016-02-16T02:59:22.805Z,5.47
2016-02-16T03:00:22.666Z,5.54
2016-02-16T03:01:22.622Z,5.54
2016-02-16T03:02:22.577Z,5.57
2016-02-16T03:03:22.549Z,5.57
2016-02-16T03:04:22.448Z,5.61
2016-02-16T03:05:22.374Z,5.59
2016-02-16T03:06:22.329Z,5.64
2016-02-16T03:07:22.238Z,5.46
2016-02-16T03:08:22.209Z,5.33
2016-02-16T03:09:22.135Z,5.36
2016-02-16T03:10:22.090Z,5.47
2016-02-16T03:11:21.952Z,5.39
2016-02-16T03:12:22.001Z,5.51
2016-02-16T03:13:21.941Z,5.48
2016-02-16T03:14:22.007Z,5.46
2016-02-16T03:15:21.854Z,5.43
2016-02-16T03:16:21.731Z,5.5
2016-02-16T03:17:21.827Z,5.59
2016-02-16T03:18:21.642Z,5.54
2016-02-16T03:19:21.598Z,5.57
2016-02-16T03:20:21.585Z,5.48
2016-02-16T03:21:21.448Z,5.36
2016-02-16T03:22:21.388Z,5.39
2016-02-16T03:23:21.375Z,5.32
2016-02-16T03:24:21.299Z,5.3
2016-02-16T03:25:21.223Z,5.39
2016-02-16T03:26:21.180Z,5.41
2016-02-16T03:27:21.151Z,5.26
2016-02-16T03:28:21.092Z,5.38
2016-02-16T03:29:21.016Z,5.41
2016-02-16T03:30:20.940Z,5.41
2016-02-16T03:31:20.911Z,5.46
2016-02-16T03:32:20.883Z,5.29
2016-02-16T03:33:20.761Z,5.48
2016-02-16T03:34:20.795Z,5.3
2016-02-16T03:35:20.657Z,5.41
2016-02-16T03:36:20.628Z,5.47
2016-02-16T03:37:20.662Z,5.38
2016-02-16T03:38:20.494Z,5.39
2016-02-16T03:39:20.465Z,5.61
2016-02-16T03:40:20.358Z,5.59
2016-02-16T03:41:20.360Z,5.64
2016-02-16T03:42:20.269Z,5.56
2016-02-16T03:43:20.178Z,5.56
2016-02-16T03:44:20.165Z,5.59
2016-02-16T03:45:20.231Z,5.44
2016-02-16T03:46:20.015Z,5.46
2016-02-16T03:47:19.986Z,5.53
2016-02-16T03:48:19.942Z,5.39
2016-02-16T03:49:19.866Z,5.23
2016-02-16T03:50:19.791Z,5.36
2016-02-16T03:51:19.748Z,5.41
2016-02-16T03:52:19.703Z,5.41
2016-02-16T03:53:19.627Z,5.39
2016-02-16T03:54:19.645Z,5.43
2016-02-16T03:55:19.554Z,5.41
2016-02-16T03:56:19.495Z,5.38
2016-02-16T03:57:19.404Z,5.41
2016-02-16T03:58:19.344Z,5.43
2016-02-16T03:59:19.361Z,5.43
2016-02-16T04:00:19.333Z,5.38
2016-02-16T04:01:19.195Z,5.28
2016-02-16T04:02:19.136Z,5.39
2016-02-16T04:03:19.030Z,5.1
2016-02-16T04:04:19.032Z,5.1
2016-02-16T04:05:18.956Z,5.36
2016-02-16T04:06:18.912Z,5.43
2016-02-16T04:07:18.821Z,5.33
2016-02-16T04:08:18.636Z,5.3
2016-02-16T04:09:18.701Z,5.38
2016-02-16T04:10:18.626Z,5.38
2016-02-16T04:11:18.582Z,5.43
2016-02-16T04:12:18.632Z,5.18
2016-02-16T04:13:18.525Z,5.38
2016-02-16T04:14:18.465Z,5.3
2016-02-16T04:15:18.357Z,5.32
2016-02-16T04:16:18.330Z,5.38
2016-02-16T04:17:18.238Z,5.38
2016-02-16T04:18:18.226Z,5.32
2016-02-16T04:19:18.104Z,5.44
2016-02-16T04:20:18.106Z,5.41
2016-02-16T04:21:18.031Z,5.38
2016-02-16T04:22:18.065Z,5.43
2016-02-16T04:23:17.912Z,5.04
2016-02-16T04:24:17.851Z,5.2
2016-02-16T04:25:17.775Z,5.21
2016-02-16T04:26:17.701Z,5.15
2016-02-16T04:27:17.719Z,5.2
2016-02-16T04:28:17.612Z,5.25
2016-02-16T04:29:17.553Z,5.23
2016-02-16T04:30:17.508Z,5.28
2016-02-16T04:31:17.430Z,5.29
2016-02-16T04:32:17.343Z,5.3
2016-02-16T04:33:17.300Z,5.32
2016-02-16T04:34:17.196Z,5.29
2016-02-16T04:35:17.154Z,5.25
2016-02-16T04:36:17.130Z,5.23
2016-02-16T04:37:17.018Z,5.07
2016-02-16T04:38:16.954Z,5.26
2016-02-16T04:39:16.904Z,5.26
2016-02-16T04:40:16.824Z,5.11
2016-02-16T04:41:16.760Z,5.2
2016-02-16T04:42:16.746Z,5.21
2016-02-16T04:43:16.669Z,5.14
2016-02-16T04:44:16.591Z,5.23
2016-02-16T04:45:16.545Z,5.28
2016-02-16T04:46:16.469Z,5.26
2016-02-16T04:47:16.486Z,5.33
2016-02-16T04:48:16.363Z,5.28
2016-02-16T04:49:16.287Z,5.36
2016-02-16T04:50:16.258Z,5.17
2016-02-16T04:51:16.197Z,5.25
2016-02-16T04:52:16.122Z,5.25
2016-02-16T04:53:16.078Z,5.25
2016-02-16T04:54:15.971Z,5.28
2016-02-16T04:55:15.942Z,5.23
2016-02-16T04:56:15.945Z,5.32
2016-02-16T04:57:15.869Z,5.35
2016-02-16T04:58:15.793Z,5.38
2016-02-16T04:59:15.671Z,5.43
2016-02-16T05:00:15.659Z,5.43
2016-02-16T05:01:15.599Z,5.33
2016-02-16T05:02:15.507Z,5.36
2016-02-16T05:03:15.526Z,5.33
2016-02-16T05:04:15.404Z,5.39
2016-02-16T05:05:15.360Z,5.36
2016-02-16T05:06:15.332Z,5.36
2016-02-16T05:07:15.271Z,5.35
2016-02-16T05:08:15.211Z,5.35
2016-02-16T05:09:15.184Z,5.33
2016-02-16T05:10:15.092Z,5.17
2016-02-16T05:11:15.032Z,5.3
2016-02-16T05:12:14.972Z,5.29
2016-02-16T05:13:14.912Z,5.35
2016-02-16T05:14:14.884Z,5.21
2016-02-16T05:15:14.793Z,5.28
2016-02-16T05:16:14.780Z,5.28
2016-02-16T05:17:14.736Z,5.23
2016-02-16T05:18:14.661Z,5.33
2016-02-16T05:19:14.757Z,5.3
2016-02-16T05:20:14.478Z,5.23
2016-02-16T05:21:14.433Z,5.2
2016-02-16T05:22:14.390Z,5.28
2016-02-16T05:23:14.346Z,5.32
2016-02-16T05:24:14.286Z,5.3
2016-02-16T05:25:14.289Z,5.2
2016-02-16T05:26:14.166Z,5.2
2016-02-16T05:27:14.107Z,5.17
2016-02-16T05:28:14.110Z,5.18
2016-02-16T05:29:14.080Z,5.04
2016-02-16T05:30:13.958Z,5.14
2016-02-16T05:31:13.946Z,5.17
2016-02-16T05:32:13.839Z,5.2
2016-02-16T05:33:13.763Z,5.08
2016-02-16T05:34:13.703Z,5.2
2016-02-16T05:35:13.659Z,5.18
2016-02-16T05:36:13.599Z,5.18
2016-02-16T05:37:13.556Z,5.11
2016-02-16T05:38:13.496Z,5.14
2016-02-16T05:39:13.436Z,5.18
2016-02-16T05:40:13.328Z,5.17
2016-02-16T05:41:13.395Z,5.1
2016-02-16T05:42:13.209Z,5.2
2016-02-16T05:43:13.227Z,5.14
2016-02-16T05:44:13.120Z,5.14
2016-02-16T05:45:13.045Z,5.12
2016-02-16T05:46:13.048Z,5.12
2016-02-16T05:47:13.067Z,5.21
2016-02-16T05:48:13.117Z,5.18
2016-02-16T05:49:13.259Z,5.2
2016-02-16T05:50:12.808Z,5.15
2016-02-16T05:51:12.843Z,5.25
2016-02-16T05:52:12.799Z,5.04
2016-02-16T05:53:12.802Z,5.04
2016-02-16T05:54:12.601Z,5.05
2016-02-16T05:55:12.666Z,5.14
2016-02-16T05:56:12.747Z,5.12
2016-02-16T05:57:12.499Z,5.2
2016-02-16T05:58:13.050Z,5.25
2016-02-16T05:59:13.099Z,5.14
2016-02-16T06:00:13.023Z,5.2
2016-02-16T06:01:12.214Z,5.15
2016-02-16T06:02:12.404Z,5.11
2016-02-16T06:03:12.094Z,5.11
2016-02-16T06:04:12.065Z,5.21
2016-02-16T06:05:12.053Z,5.08
2016-02-16T06:06:12.088Z,5.08
2016-02-16T06:07:12.183Z,5.05
2016-02-16T06:08:12.421Z,4.97
2016-02-16T06:09:12.236Z,4.94
2016-02-16T06:10:12.223Z,4.99
2016-02-16T06:11:12.335Z,4.99
2016-02-16T06:12:16.072Z,5.04
2016-02-16T06:13:11.621Z,5.02
2016-02-16T06:14:11.437Z,5.05
2016-02-16T06:15:11.424Z,5.02
2016-02-16T06:16:11.302Z,5.07
2016-02-16T06:17:11.117Z,4.99
2016-02-16T06:18:11.479Z,5.02
2016-02-16T06:19:11.232Z,4.97
2016-02-16T06:20:11.265Z,4.99
2016-02-16T06:21:11.034Z,5
2016-02-16T06:22:10.926Z,5.02
2016-02-16T06:23:10.977Z,4.99
2016-02-16T06:24:10.854Z,5.1
2016-02-16T06:25:10.779Z,5.08
2016-02-16T06:26:10.719Z,5.05
2016-02-16T06:27:10.659Z,5
2016-02-16T06:28:10.709Z,5.04
2016-02-16T06:29:10.492Z,5
2016-02-16T06:30:10.480Z,4.96
2016-02-16T06:31:10.483Z,4.87
2016-02-16T06:32:10.422Z,4.99
2016-02-16T06:33:10.364Z,5.08
2016-02-16T06:34:10.303Z,5.05
2016-02-16T06:35:10.150Z,4.92
2016-02-16T06:36:10.122Z,4.96
2016-02-16T06:37:10.093Z,5.05
2016-02-16T06:38:10.126Z,5.07
2016-02-16T06:39:09.989Z,5.07
2016-02-16T06:40:09.897Z,5.1
2016-02-16T06:41:09.869Z,4.89
2016-02-16T06:42:09.840Z,4.77
2016-02-16T06:43:09.765Z,4.9
2016-02-16T06:44:09.674Z,4.93
2016-02-16T06:45:09.613Z,4.77
2016-02-16T06:46:09.554Z,4.93
2016-02-16T06:47:09.494Z,4.99
2016-02-16T06:48:09.278Z,4.93
2016-02-16T06:49:09.422Z,4.94
2016-02-16T06:50:09.346Z,4.97
2016-02-16T06:51:09.271Z,5
2016-02-16T06:52:09.273Z,4.9
2016-02-16T06:53:09.182Z,4.93
2016-02-16T06:54:09.092Z,4.94
2016-02-16T06:55:09.048Z,4.92
2016-02-16T06:56:09.051Z,4.84
2016-02-16T06:57:08.912Z,4.86
2016-02-16T06:58:08.962Z,4.92
2016-02-16T06:59:08.855Z,4.94
2016-02-16T07:00:08.826Z,4.86
2016-02-16T07:01:08.798Z,4.87
2016-02-16T07:02:08.675Z,4.99
2016-02-16T07:03:08.647Z,5
2016-02-16T07:04:08.619Z,4.8
2016-02-16T07:05:08.558Z,4.87
2016-02-16T07:06:08.608Z,4.93
2016-02-16T07:07:08.361Z,4.87
2016-02-16T07:08:08.379Z,4.82
2016-02-16T07:09:08.569Z,4.89
2016-02-16T07:10:08.322Z,4.9
2016-02-16T07:11:08.138Z,4.89
2016-02-16T07:12:08.124Z,4.84
2016-02-16T07:13:08.158Z,4.82
2016-02-16T07:14:07.942Z,4.86
2016-02-16T07:15:08.288Z,4.9
2016-02-16T07:16:07.869Z,4.82
2016-02-16T07:17:07.794Z,4.9
2016-02-16T07:18:07.749Z,4.89
2016-02-16T07:19:07.846Z,4.99
2016-02-16T07:20:07.615Z,4.89
2016-02-16T07:21:07.585Z,4.89
2016-02-16T07:22:07.463Z,4.99
2016-02-16T07:23:07.387Z,4.94
2016-02-16T07:24:07.454Z,4.99
2016-02-16T07:25:07.503Z,4.89
2016-02-16T07:26:07.412Z,4.74
2016-02-16T07:27:07.290Z,4.89
2016-02-16T07:28:07.215Z,4.87
2016-02-16T07:29:07.076Z,4.93
2016-02-16T07:30:07.079Z,5.02
2016-02-16T07:31:06.957Z,4.93
2016-02-16T07:32:06.897Z,4.77
2016-02-16T07:33:06.884Z,4.82
2016-02-16T07:34:06.902Z,4.82
2016-02-16T07:35:06.717Z,4.77
2016-02-16T07:36:06.673Z,4.89
2016-02-16T07:37:06.628Z,4.93
2016-02-16T07:38:06.553Z,4.94
2016-02-16T07:39:06.556Z,4.87
2016-02-16T07:40:06.466Z,4.89
2016-02-16T07:41:06.374Z,4.9
2016-02-16T07:42:06.299Z,5
2016-02-16T07:43:06.254Z,4.93
2016-02-16T07:44:06.227Z,5.02
2016-02-16T07:45:06.260Z,5.04
2016-02-16T07:46:06.122Z,5.07
2016-02-16T07:47:06.062Z,4.87
2016-02-16T07:48:06.471Z,4.94
2016-02-16T07:49:05.927Z,4.97
2016-02-16T07:50:05.852Z,4.94
2016-02-16T07:51:05.807Z,4.97
2016-02-16T07:52:05.748Z,5.04
2016-02-16T07:53:05.735Z,5.02
2016-02-16T07:54:05.721Z,5.07
2016-02-16T07:55:05.740Z,5.11
2016-02-16T07:56:05.524Z,5.12
2016-02-16T07:57:05.448Z,4.99
2016-02-16T07:58:05.467Z,5.05
2016-02-16T07:59:05.423Z,5.08
2016-02-16T08:00:05.331Z,5.08
2016-02-16T08:01:05.459Z,4.94
2016-02-16T08:02:05.150Z,4.97
2016-02-16T08:03:05.152Z,5.1
2016-02-16T08:04:05.062Z,5.11
2016-02-16T08:05:05.033Z,5.02
2016-02-16T08:06:05.036Z,5.05
2016-02-16T08:07:04.928Z,5
2016-02-16T08:08:04.853Z,5.05
2016-02-16T08:09:04.746Z,4.86
2016-02-16T08:10:04.734Z,4.78
2016-02-16T08:11:04.674Z,4.93
2016-02-16T08:12:04.630Z,4.96
2016-02-16T08:13:04.555Z,5.02
2016-02-16T08:14:04.448Z,5.07
2016-02-16T08:15:04.450Z,4.94
2016-02-16T08:16:04.374Z,4.99
2016-02-16T08:17:04.361Z,4.99
2016-02-16T08:18:04.302Z,5.07
2016-02-16T08:19:04.180Z,5.02
2016-02-16T08:20:04.166Z,4.96
2016-02-16T08:21:03.357Z,4.89
2016-02-16T08:22:04.031Z,4.89
2016-02-16T08:23:03.971Z,5.04
2016-02-16T08:24:03.912Z,5
2016-02-16T08:25:03.821Z,4.99
2016-02-16T08:26:03.745Z,4.96
2016-02-16T08:27:03.685Z,4.96
2016-02-16T08:28:03.704Z,4.84
2016-02-16T08:29:03.644Z,4.74
2016-02-16T08:30:03.568Z,4.67
2016-02-16T08:31:03.446Z,4.82
2016-02-16T08:32:03.495Z,4.87
2016-02-16T08:33:03.404Z,4.96
2016-02-16T08:34:03.564Z,4.9
2016-02-16T08:35:03.269Z,4.96
2016-02-16T08:36:03.397Z,5.04
2016-02-16T08:37:03.134Z,4.94
2016-02-16T08:38:03.122Z,4.86
2016-02-16T08:39:03.030Z,4.82
2016-02-16T08:40:02.955Z,4.9
2016-02-16T08:41:03.051Z,4.77
2016-02-16T08:42:02.819Z,4.87
2016-02-16T08:43:02.791Z,4.93
2016-02-16T08:44:02.763Z,4.93
2016-02-16T08:45:02.671Z,5.11
2016-02-16T08:46:02.597Z,4.97
2016-02-16T08:47:02.380Z,5.02
2016-02-16T08:48:02.649Z,4.96
2016-02-16T08:49:02.448Z,4.92
2016-02-16T08:50:02.482Z,4.87
2016-02-16T08:51:02.484Z,4.63
2016-02-16T08:52:02.252Z,4.84
2016-02-16T08:53:02.177Z,4.87
2016-02-16T08:54:02.180Z,4.94
2016-02-16T08:55:02.073Z,5.04
2016-02-16T08:56:02.154Z,4.9
2016-02-16T08:57:01.969Z,4.96
2016-02-16T08:58:01.878Z,4.82
2016-02-16T08:59:01.897Z,4.9
2016-02-16T09:00:01.852Z,4.94
2016-02-16T09:01:01.730Z,5.02
2016-02-16T09:02:01.654Z,5.15
2016-02-16T09:03:01.673Z,5.15
2016-02-16T09:04:01.597Z,5.12
2016-02-16T09:05:01.553Z,5.17
2016-02-16T09:06:01.462Z,5.26
2016-02-16T09:07:01.403Z,5.18
2016-02-16T09:08:01.545Z,5.17
2016-02-16T09:09:01.236Z,5.08
2016-02-16T09:10:01.364Z,4.89
2016-02-16T09:11:01.211Z,5.02
2016-02-16T09:12:01.103Z,5.11
2016-02-16T09:13:01.044Z,4.99
2016-02-16T09:14:01.031Z,4.97
2016-02-16T09:15:00.986Z,5.08
2016-02-16T09:16:00.864Z,4.86
2016-02-16T09:17:00.835Z,5
2016-02-16T09:18:00.822Z,4.52
2016-02-16T09:19:00.685Z,4.75
2016-02-16T09:20:00.640Z,4.87
2016-02-16T09:21:00.581Z,5.05
2016-02-16T09:22:00.568Z,5.08
2016-02-16T09:23:00.539Z,5.04
2016-02-16T09:24:00.480Z,5.12
2016-02-16T09:25:00.544Z,5.14
2016-02-16T09:26:00.438Z,5.21
2016-02-16T09:27:00.300Z,5.26
2016-02-16T09:28:00.271Z,5.25
2016-02-16T09:29:00.212Z,5.2
2016-02-16T09:30:00.058Z,5.29
2016-02-16T09:31:00.029Z,5.38
2016-02-16T09:32:00.048Z,5.38
2016-02-16T09:32:59.941Z,5.43
2016-02-16T09:33:59.960Z,5.41
2016-02-16T09:35:00.025Z,5.35
2016-02-16T09:35:59.715Z,5.41
2016-02-16T09:36:59.640Z,5.44
2016-02-16T09:37:59.612Z,5.43
2016-02-16T09:38:59.520Z,5.41
2016-02-16T09:39:59.476Z,5.36
2016-02-16T09:40:59.416Z,5.46
2016-02-16T09:41:59.356Z,5.3
2016-02-16T09:42:59.312Z,5.46
2016-02-16T09:43:59.300Z,5.32
2016-02-16T09:44:59.192Z,5.36
2016-02-16T09:45:59.195Z,5.38
2016-02-16T09:46:59.088Z,5.5
2016-02-16T09:47:59.310Z,5.46
2016-02-16T09:48:58.968Z,5.44
2016-02-16T09:49:58.956Z,5.5
2016-02-16T09:50:58.912Z,5.21
2016-02-16T09:51:58.805Z,5.29
2016-02-16T09:52:58.745Z,5.38
2016-02-16T09:53:58.747Z,5.39
2016-02-16T09:54:58.688Z,5.46
2016-02-16T09:55:58.596Z,5.36
2016-02-16T09:56:58.537Z,5.44
2016-02-16T09:57:58.665Z,5.44
2016-02-16T09:58:58.371Z,5.47
2016-02-16T09:59:58.421Z,5.61
2016-02-16T10:00:58.266Z,5.61
2016-02-16T10:01:58.207Z,5.61
2016-02-16T10:02:58.240Z,5.5
2016-02-16T10:03:58.118Z,5.35
2016-02-16T10:04:58.090Z,5.47
2016-02-16T10:05:58.030Z,5.36
2016-02-16T10:06:58.017Z,5.44
2016-02-16T10:07:57.879Z,5.46
2016-02-16T10:08:57.975Z,5.46
2016-02-16T10:09:57.853Z,5.5
2016-02-16T10:10:57.715Z,5.53
2016-02-16T10:11:56.936Z,5.44
2016-02-16T10:12:57.628Z,5.61
2016-02-16T10:13:57.568Z,5.57
2016-02-16T10:14:57.492Z,5.57
2016-02-16T10:15:57.448Z,5.65
2016-02-16T10:16:57.341Z,5.5
2016-02-16T10:17:57.281Z,5.56
2016-02-16T10:18:57.222Z,5.61
2016-02-16T10:19:57.162Z,5.65
2016-02-16T10:20:57.133Z,5.68
2016-02-16T10:21:57.058Z,5.66
2016-02-16T10:22:56.997Z,5.76
2016-02-16T10:23:57.000Z,5.66
2016-02-16T10:24:57.034Z,5.69
2016-02-16T10:25:56.880Z,5.48
2016-02-16T10:26:56.915Z,5.53
2016-02-16T10:27:56.730Z,5.47
2016-02-16T10:28:56.686Z,5.54
2016-02-16T10:29:56.626Z,5.26
2016-02-16T10:30:56.582Z,5.36
2016-02-16T10:31:56.459Z,5.47
2016-02-16T10:32:56.446Z,5.54
2016-02-16T10:33:56.401Z,5.53
2016-02-16T10:34:56.468Z,5.53
2016-02-16T10:35:56.330Z,5.54
2016-02-16T10:36:56.442Z,5.59
2016-02-16T10:37:56.194Z,5.64
2016-02-16T10:38:56.103Z,5.64
2016-02-16T10:39:56.075Z,5.61
2016-02-16T10:40:56.045Z,5.65
2016-02-16T10:41:55.936Z,5.68
2016-02-16T10:42:55.986Z,5.56
2016-02-16T10:43:55.770Z,5.62
2016-02-16T10:44:55.820Z,5.65
2016-02-16T10:45:55.682Z,5.76
2016-02-16T10:46:55.669Z,5.73
2016-02-16T10:47:55.577Z,5.68
2016-02-16T10:48:55.565Z,5.66
2016-02-16T10:49:55.506Z,5.76
2016-02-16T10:50:55.508Z,5.76
2016-02-16T10:51:55.370Z,5.5
2016-02-16T10:52:55.278Z,5.35
2016-02-16T10:53:55.266Z,5.48
2016-02-16T10:54:55.237Z,5.38
2016-02-16T10:55:55.177Z,5.41
2016-02-16T10:56:55.040Z,5.47
2016-02-16T10:57:55.152Z,5.48
2016-02-16T10:58:55.014Z,5.56
2016-02-16T10:59:54.907Z,5.38
2016-02-16T11:00:54.847Z,5.35
2016-02-16T11:01:54.787Z,5.39
2016-02-16T11:02:54.713Z,5.59
2016-02-16T11:03:54.637Z,5.59
2016-02-16T11:04:54.624Z,5.53
2016-02-16T11:05:54.610Z,5.59
2016-02-16T11:06:54.520Z,5.61
2016-02-16T11:07:54.334Z,5.43
2016-02-16T11:08:54.385Z,5.39
2016-02-16T11:09:54.293Z,5.48
2016-02-16T11:10:53.546Z,5.38
2016-02-16T11:11:54.237Z,5.5
2016-02-16T11:12:54.161Z,5.54
2016-02-16T11:13:54.117Z,5.35
2016-02-16T11:14:54.041Z,5.17
2016-02-16T11:15:54.044Z,5.21
2016-02-16T11:16:53.905Z,5.39
2016-02-16T11:17:53.956Z,5.3
2016-02-16T11:18:53.834Z,5.36
2016-02-16T11:19:53.820Z,5.28
2016-02-16T11:20:53.714Z,5.28
2016-02-16T11:21:53.700Z,5.43
2016-02-16T11:22:53.594Z,5.43
2016-02-16T11:23:53.612Z,5.36
2016-02-16T11:24:53.490Z,5.44
2016-02-16T11:25:53.399Z,5.44
2016-02-16T11:26:53.339Z,5.57
2016-02-16T11:27:53.316Z,5.61
2016-02-16T11:28:53.240Z,5.51
2016-02-16T11:29:53.180Z,5.51
2016-02-16T11:30:53.198Z,5.59
2016-02-16T11:31:53.045Z,5.41
2016-02-16T11:32:53.016Z,5.32
2016-02-16T11:33:52.893Z,5.47
2016-02-16T11:34:52.881Z,5.41
2016-02-16T11:35:52.868Z,5.44
2016-02-16T11:36:52.761Z,5.35
2016-02-16T11:37:52.701Z,5.43
2016-02-16T11:38:52.626Z,5.38
2016-02-16T11:39:52.567Z,5.39
2016-02-16T11:40:52.632Z,5.39
2016-02-16T11:41:52.462Z,5.23
2016-02-16T11:42:52.450Z,5.41
2016-02-16T11:43:52.436Z,5.48
2016-02-16T11:44:52.392Z,5.39
2016-02-16T11:45:52.270Z,5.46
2016-02-16T11:46:52.164Z,5.47
2016-02-16T11:47:52.197Z,5.43
2016-02-16T11:48:52.091Z,5.41
2016-02-16T11:49:52.030Z,5.44
2016-02-16T11:50:51.939Z,5.47
2016-02-16T11:51:51.927Z,5.26
2016-02-16T11:52:51.867Z,5.38
2016-02-16T11:53:51.791Z,5.38
2016-02-16T11:54:51.778Z,5.43
2016-02-16T11:55:51.672Z,5.46
2016-02-16T11:56:51.705Z,5.44
2016-02-16T11:57:51.552Z,5.38
2016-02-16T11:58:51.524Z,5.44
2016-02-16T11:59:51.464Z,5.44
2016-02-16T12:00:51.451Z,5.46
2016-02-16T12:01:51.344Z,5.18
2016-02-16T12:02:51.299Z,5.35
2016-02-16T12:03:51.194Z,5.35
2016-02-16T12:04:51.259Z,5.18
2016-02-16T12:05:51.063Z,5.29
2016-02-16T12:06:51.051Z,5.38
2016-02-16T12:07:51.022Z,5.38
2016-02-16T12:08:51.009Z,5.41
2016-02-16T12:09:50.871Z,5.36
2016-02-16T12:10:50.780Z,5.43
2016-02-16T12:11:50.783Z,5.36
2016-02-16T12:12:50.895Z,5.29
2016-02-16T12:13:50.648Z,5.36
2016-02-16T12:14:50.713Z,5.41
2016-02-16T12:15:50.529Z,5.33
2016-02-16T12:16:50.468Z,5.41
2016-02-16T12:17:50.424Z,5.39
2016-02-16T12:18:50.318Z,5.41
2016-02-16T12:19:50.476Z,5.43
2016-02-16T12:20:50.214Z,5.08
2016-02-16T12:21:50.138Z,5.25
2016-02-16T12:22:50.109Z,5.29
2016-02-16T12:23:50.098Z,5.25
2016-02-16T12:24:50.193Z,5.33
2016-02-16T12:25:49.821Z,5.38
2016-02-16T12:26:49.855Z,5.43
2016-02-16T12:27:49.825Z,5.48
2016-02-16T12:28:49.939Z,5.35
2016-02-16T12:29:49.894Z,5.28
2016-02-16T12:30:49.631Z,5.25
2016-02-16T12:31:49.587Z,5.35
2016-02-16T12:32:49.527Z,5.17
2016-02-16T12:33:49.467Z,5.1
2016-02-16T12:34:49.439Z,5.15
2016-02-16T12:35:49.363Z,5.12
2016-02-16T12:36:49.289Z,5.25
2016-02-16T12:37:49.275Z,5.26
2016-02-16T12:38:49.309Z,5.2
2016-02-16T12:39:49.171Z,5.3
2016-02-16T12:40:49.251Z,5.28
2016-02-16T12:41:48.988Z,5.11
2016-02-16T12:42:48.946Z,5.23
2016-02-16T12:43:48.885Z,5.33
2016-02-16T12:44:48.887Z,5.3
2016-02-16T12:45:48.797Z,5.35
2016-02-16T12:46:48.721Z,5.36
2016-02-16T12:47:48.645Z,5.36
2016-02-16T12:48:48.617Z,5.36
2016-02-16T12:49:48.557Z,5.25
2016-02-16T12:50:48.481Z,5.28
2016-02-16T12:51:48.610Z,5.21
2016-02-16T12:52:48.534Z,5.11
2016-02-16T12:53:48.475Z,5.18
2016-02-16T12:54:48.227Z,5.32
2016-02-16T12:55:48.151Z,5.23
2016-02-16T12:56:48.123Z,5.43
2016-02-16T12:57:48.110Z,5.23
2016-02-16T12:58:48.051Z,5.14
2016-02-16T12:59:47.944Z,5.28
2016-02-16T13:00:47.899Z,5.04
2016-02-16T13:01:47.886Z,5.3
2016-02-16T13:02:47.827Z,5.2
2016-02-16T13:03:47.813Z,5.2
2016-02-16T13:04:47.567Z,5.23
2016-02-16T13:05:47.678Z,5.17
2016-02-16T13:06:47.713Z,5.2
2016-02-16T13:07:47.637Z,5.17
2016-02-16T13:08:47.421Z,5.02
2016-02-16T13:09:47.360Z,5.11
2016-02-16T13:10:47.348Z,5.11
2016-02-16T13:11:47.335Z,5.23
2016-02-16T13:12:47.275Z,5.11
2016-02-16T13:13:47.138Z,5.2
2016-02-16T13:14:47.171Z,5.29
2016-02-16T13:15:47.065Z,5.23
2016-02-16T13:16:46.989Z,5.21
2016-02-16T13:17:46.945Z,5.07
2016-02-16T13:18:46.917Z,4.97
2016-02-16T13:19:46.872Z,4.99
2016-02-16T13:20:46.765Z,4.97